createdAt,value
2023-03-23T16:00:13.919Z,98967.59
2023-03-23T16:02:47.008Z,98980.72
2023-03-23T16:05:22.630Z,98976.56
2023-03-23T16:07:56.913Z,98970.63
2023-03-23T16:10:30.306Z,98977.50
2023-03-23T16:13:04.430Z,98990.44
2023-03-23T16:15:33.405Z,98985.34
2023-03-23T16:18:10.881Z,98965.66
2023-03-23T16:20:47.792Z,98972.91
2023-03-23T16:23:29.690Z,98990.63
2023-03-23T16:26:00.697Z,98983.16
2023-03-23T16:28:37.343Z,98988.00
2023-03-23T16:31:12.039Z,98982.00
2023-03-23T16:33:49.076Z,98982.44
2023-03-23T16:36:22.836Z,98991.00
2023-03-23T16:38:57.029Z,98988.56
2023-03-23T16:41:28.395Z,98991.47
2023-03-23T16:43:58.564Z,98998.59
2023-03-23T16:46:28.983Z,98998.63
2023-03-23T16:49:00.882Z,99000.91
2023-03-23T16:51:31.286Z,98997.44
2023-03-23T16:54:06.405Z,99010.34
2023-03-23T16:56:35.640Z,99008.91
2023-03-23T16:59:10.837Z,99007.84
2023-03-23T17:01:52.441Z,99017.41
2023-03-23T17:04:34.197Z,99016.56
2023-03-23T17:07:03.650Z,99014.91
2023-03-23T17:09:37.238Z,99014.09
2023-03-23T17:12:09.171Z,99017.22
2023-03-23T17:14:41.498Z,99017.84
2023-03-23T17:17:18.920Z,99027.22
2023-03-23T17:20:00.922Z,99031.56
2023-03-23T17:22:31.043Z,99036.97
2023-03-23T17:25:10.318Z,99027.00
2023-03-23T17:27:45.146Z,99021.78
2023-03-23T17:30:18.336Z,99015.56
2023-03-23T17:33:12.635Z,99029.88
2023-03-23T17:35:47.982Z,99021.75
2023-03-23T17:38:19.455Z,99021.56
2023-03-23T17:41:08.221Z,99033.19
2023-03-23T17:43:41.224Z,99030.28
2023-03-23T17:46:11.954Z,99031.31
2023-03-23T17:48:49.144Z,99038.38
2023-03-23T17:51:22.171Z,99020.72
2023-03-23T17:54:03.416Z,99026.97
2023-03-23T17:56:35.114Z,99028.63
2023-03-23T17:59:06.828Z,99034.00
2023-03-23T18:01:49.796Z,99033.53
2023-03-23T18:04:41.153Z,99033.50
2023-03-23T18:07:24.873Z,99036.84
2023-03-23T18:12:50.082Z,99045.09
2023-03-23T18:15:28.249Z,99048.25
2023-03-23T18:18:27.160Z,99041.34
2023-03-23T18:21:29.956Z,99047.16
2023-03-23T18:24:00.237Z,99043.63
2023-03-23T18:26:41.283Z,99054.84
2023-03-23T18:29:27.136Z,99057.94
2023-03-23T18:32:22.084Z,99065.84
2023-03-23T18:35:00.559Z,99064.75
2023-03-23T18:37:40.144Z,99057.50
2023-03-23T18:40:26.025Z,99070.34
2023-03-23T18:43:01.021Z,99061.25
2023-03-23T18:45:39.979Z,99063.69
2023-03-23T18:48:28.664Z,99070.53
2023-03-23T18:51:03.152Z,99071.56
2023-03-23T18:53:50.185Z,99067.16
2023-03-23T18:56:33.931Z,99077.97
2023-03-23T18:59:09.712Z,99073.19
2023-03-23T19:01:46.291Z,99078.56
2023-03-23T19:04:27.769Z,99078.97
2023-03-23T19:07:02.835Z,99082.72
2023-03-23T19:09:38.050Z,99073.56
2023-03-23T19:12:19.971Z,99074.94
2023-03-23T19:15:02.727Z,99075.94
2023-03-23T19:17:34.188Z,99067.44
2023-03-23T19:20:07.211Z,99075.94
2023-03-23T19:22:38.171Z,99060.97
2023-03-23T19:25:28.939Z,99066.78
2023-03-23T19:30:44.905Z,99069.81
2023-03-23T19:33:20.124Z,99076.59
2023-03-23T19:36:10.827Z,99078.88
2023-03-23T19:38:49.280Z,99077.19
2023-03-23T19:41:36.341Z,99078.44
2023-03-23T19:44:14.576Z,99082.16
2023-03-23T19:47:10.052Z,99079.03
2023-03-23T19:50:08.277Z,99085.19
2023-03-23T19:52:42.162Z,99075.91
2023-03-23T19:55:15.757Z,99087.91
2023-03-23T19:57:54.252Z,99084.19
2023-03-23T20:00:35.841Z,99081.69
2023-03-23T20:03:23.271Z,99080.41
2023-03-23T20:06:10.061Z,99082.47
2023-03-23T20:09:10.168Z,99084.50
2023-03-23T20:11:43.842Z,99079.69
2023-03-23T20:14:29.393Z,99077.00
2023-03-23T20:17:03.733Z,99089.84
2023-03-23T20:19:40.283Z,99085.66
2023-03-23T20:22:15.053Z,99081.69
2023-03-23T20:24:48.291Z,99089.41
2023-03-23T20:27:23.398Z,99084.59
2023-03-23T20:30:20.114Z,99086.84
2023-03-23T20:32:59.613Z,99091.84
2023-03-23T20:35:38.136Z,99098.47
2023-03-23T20:38:09.539Z,99086.25
2023-03-23T20:40:41.049Z,99092.69
2023-03-23T20:43:17.518Z,99094.53
2023-03-23T20:45:51.168Z,99105.41
2023-03-23T20:48:28.621Z,99107.09
2023-03-23T20:51:11.380Z,99110.50
2023-03-23T20:53:41.417Z,99123.28
2023-03-23T20:56:12.286Z,99117.41
2023-03-23T20:58:48.882Z,99127.56
2023-03-23T21:01:28.630Z,99128.50
2023-03-23T21:04:16.754Z,99120.75
2023-03-23T21:06:55.797Z,99112.53
2023-03-23T21:09:26.141Z,99116.06
2023-03-23T21:11:58.285Z,99104.44
2023-03-23T21:14:28.245Z,99109.22
2023-03-23T21:17:01.498Z,99100.66
2023-03-23T21:19:37.926Z,99105.63
2023-03-23T21:22:10.204Z,99101.50
2023-03-23T21:24:41.181Z,99105.44
2023-03-23T21:27:23.434Z,99103.13
2023-03-23T21:29:57.450Z,99099.31
2023-03-23T21:32:48.027Z,99103.69
2023-03-23T21:35:30.205Z,99102.84
2023-03-23T21:38:06.028Z,99105.16
2023-03-23T21:40:48.556Z,99104.31
2023-03-23T21:43:17.277Z,99108.91
2023-03-23T21:45:47.936Z,99103.69
2023-03-23T21:48:26.532Z,99108.91
2023-03-23T21:50:57.740Z,99111.31
2023-03-23T21:53:28.594Z,99092.66
2023-03-23T21:56:07.530Z,99095.63
2023-03-23T21:58:37.085Z,99109.66
2023-03-23T22:01:12.283Z,99102.19
2023-03-23T22:03:45.185Z,99098.88
2023-03-23T22:06:18.543Z,99100.28
2023-03-23T22:08:51.045Z,99094.50
2023-03-23T22:11:23.452Z,99092.47
2023-03-23T22:13:53.843Z,99090.03
2023-03-23T22:16:24.288Z,99094.13
2023-03-23T22:19:00.998Z,99091.31
2023-03-23T22:21:32.334Z,99088.50
2023-03-23T22:24:09.789Z,99079.25
2023-03-23T22:26:39.161Z,99078.22
2023-03-23T22:29:07.588Z,99070.78
2023-03-23T22:31:42.620Z,99077.84
2023-03-23T22:34:18.243Z,99073.94
2023-03-23T22:36:50.101Z,99064.81
2023-03-23T22:39:19.434Z,99064.94
2023-03-23T22:41:59.038Z,99061.34
2023-03-23T22:44:29.197Z,99065.75
2023-03-23T22:46:58.400Z,99062.00
2023-03-23T22:49:31.413Z,99061.34
2023-03-23T22:52:05.178Z,99055.25
2023-03-23T22:54:36.628Z,99052.03
2023-03-23T22:57:08.305Z,99052.97
2023-03-23T22:59:39.434Z,99053.47
2023-03-23T23:02:11.292Z,99050.53
2023-03-23T23:04:46.778Z,99060.28
2023-03-23T23:07:21.300Z,99064.81
2023-03-23T23:09:51.426Z,99065.00
2023-03-23T23:12:30.346Z,99059.38
2023-03-23T23:15:13.270Z,99055.34
2023-03-23T23:17:44.169Z,99053.44
2023-03-23T23:20:21.482Z,99053.63
2023-03-23T23:22:50.876Z,99045.94
2023-03-23T23:25:24.963Z,99053.81
2023-03-23T23:27:54.630Z,99046.31
2023-03-23T23:30:26.259Z,99047.31
2023-03-23T23:32:56.871Z,99043.72
2023-03-23T23:35:37.116Z,99045.22
2023-03-23T23:38:07.337Z,99047.09
2023-03-23T23:40:35.820Z,99046.16
2023-03-23T23:43:16.077Z,99047.06
2023-03-23T23:45:50.649Z,99043.28
2023-03-23T23:48:26.721Z,99044.66
2023-03-23T23:51:04.516Z,99049.63
2023-03-23T23:53:34.915Z,99050.94
2023-03-23T23:56:06.636Z,99043.31
2023-03-23T23:58:35.995Z,99044.88
